sensor_id;sensor_type;location;lat;lon;timestamp;P1;durP1;ratioP1;P2;durP2;ratioP2
8102;SDS011;4094;49.948;11.574;2023-07-31T00:00:20;4.63;;;4.27;;
8102;SDS011;4094;49.948;11.574;2023-07-31T00:02:49;5.67;;;4.90;;
8102;SDS011;4094;49.948;11.574;2023-07-31T00:05:23;4.83;;;4.43;;
8102;SDS011;4094;49.948;11.574;2023-07-31T00:07:54;5.07;;;4.67;;
8102;SDS011;4094;49.948;11.574;2023-07-31T00:10:23;4.90;;;4.50;;
8102;SDS011;4094;49.948;11.574;2023-07-31T00:12:54;5.20;;;4.53;;
8102;SDS011;4094;49.948;11.574;2023-07-31T00:15:23;4.63;;;4.23;;
8102;SDS011;4094;49.948;11.574;2023-07-31T00:17:53;4.83;;;4.37;;
8102;SDS011;4094;49.948;11.574;2023-07-31T00:20:22;4.77;;;4.37;;
8102;SDS011;4094;49.948;11.574;2023-07-31T00:22:52;4.80;;;4.40;;
8102;SDS011;4094;49.948;11.574;2023-07-31T00:25:21;4.43;;;4.07;;
8102;SDS011;4094;49.948;11.574;2023-07-31T00:27:50;4.60;;;4.20;;
8102;SDS011;4094;49.948;11.574;2023-07-31T00:30:22;5.13;;;4.50;;
8102;SDS011;4094;49.948;11.574;2023-07-31T00:32:54;4.83;;;4.33;;
8102;SDS011;4094;49.948;11.574;2023-07-31T00:35:23;4.73;;;4.07;;
8102;SDS011;4094;49.948;11.574;2023-07-31T00:37:52;4.77;;;4.33;;
8102;SDS011;4094;49.948;11.574;2023-07-31T00:40:21;4.47;;;3.90;;
8102;SDS011;4094;49.948;11.574;2023-07-31T00:42:51;4.40;;;4.10;;
8102;SDS011;4094;49.948;11.574;2023-07-31T00:45:20;4.83;;;4.10;;
8102;SDS011;4094;49.948;11.574;2023-07-31T00:47:55;4.50;;;4.10;;
8102;SDS011;4094;49.948;11.574;2023-07-31T00:50:24;5.07;;;3.87;;
8102;SDS011;4094;49.948;11.574;2023-07-31T00:52:53;4.80;;;4.40;;
8102;SDS011;4094;49.948;11.574;2023-07-31T00:55:23;4.63;;;4.07;;
8102;SDS011;4094;49.948;11.574;2023-07-31T00:57:52;4.87;;;4.07;;
8102;SDS011;4094;49.948;11.574;2023-07-31T01:00:24;5.17;;;4.67;;
8102;SDS011;4094;49.948;11.574;2023-07-31T01:02:54;4.57;;;4.17;;
8102;SDS011;4094;49.948;11.574;2023-07-31T01:05:25;5.07;;;4.10;;
8102;SDS011;4094;49.948;11.574;2023-07-31T01:08:04;4.70;;;4.30;;
8102;SDS011;4094;49.948;11.574;2023-07-31T01:10:43;4.83;;;4.33;;
8102;SDS011;4094;49.948;11.574;2023-07-31T01:13:19;14.27;;;4.47;;
8102;SDS011;4094;49.948;11.574;2023-07-31T01:15:50;7.53;;;4.40;;
8102;SDS011;4094;49.948;11.574;2023-07-31T01:18:19;4.67;;;4.27;;
8102;SDS011;4094;49.948;11.574;2023-07-31T01:20:50;4.77;;;4.47;;
8102;SDS011;4094;49.948;11.574;2023-07-31T01:23:30;5.03;;;4.53;;
8102;SDS011;4094;49.948;11.574;2023-07-31T01:26:12;6.03;;;4.47;;
8102;SDS011;4094;49.948;11.574;2023-07-31T01:28:50;4.70;;;4.30;;
8102;SDS011;4094;49.948;11.574;2023-07-31T01:31:24;4.63;;;4.20;;
8102;SDS011;4094;49.948;11.574;2023-07-31T01:33:56;5.00;;;4.50;;
8102;SDS011;4094;49.948;11.574;2023-07-31T01:36:28;4.90;;;4.20;;
8102;SDS011;4094;49.948;11.574;2023-07-31T01:38:59;5.37;;;4.00;;
8102;SDS011;4094;49.948;11.574;2023-07-31T01:41:31;5.17;;;4.27;;
8102;SDS011;4094;49.948;11.574;2023-07-31T01:44:00;4.30;;;3.90;;
8102;SDS011;4094;49.948;11.574;2023-07-31T01:46:29;4.83;;;4.10;;
8102;SDS011;4094;49.948;11.574;2023-07-31T01:48:58;3.63;;;3.30;;
8102;SDS011;4094;49.948;11.574;2023-07-31T01:51:27;4.40;;;4.00;;
8102;SDS011;4094;49.948;11.574;2023-07-31T01:53:56;5.70;;;3.80;;
8102;SDS011;4094;49.948;11.574;2023-07-31T01:56:25;6.40;;;3.90;;
8102;SDS011;4094;49.948;11.574;2023-07-31T01:58:56;4.60;;;4.17;;
8102;SDS011;4094;49.948;11.574;2023-07-31T02:01:25;4.57;;;4.17;;
8102;SDS011;4094;49.948;11.574;2023-07-31T02:03:54;5.93;;;4.10;;
8102;SDS011;4094;49.948;11.574;2023-07-31T02:06:24;6.07;;;4.23;;
8102;SDS011;4094;49.948;11.574;2023-07-31T02:08:52;4.30;;;3.90;;
8102;SDS011;4094;49.948;11.574;2023-07-31T02:11:21;4.53;;;4.20;;
8102;SDS011;4094;49.948;11.574;2023-07-31T02:13:50;4.73;;;4.17;;
8102;SDS011;4094;49.948;11.574;2023-07-31T02:16:21;5.20;;;4.00;;
8102;SDS011;4094;49.948;11.574;2023-07-31T02:18:50;4.47;;;4.17;;
8102;SDS011;4094;49.948;11.574;2023-07-31T02:21:19;4.40;;;4.00;;
8102;SDS011;4094;49.948;11.574;2023-07-31T02:23:49;5.23;;;4.07;;
8102;SDS011;4094;49.948;11.574;2023-07-31T02:26:19;4.67;;;4.27;;
8102;SDS011;4094;49.948;11.574;2023-07-31T02:28:48;4.67;;;4.20;;
8102;SDS011;4094;49.948;11.574;2023-07-31T02:31:17;4.73;;;4.23;;
8102;SDS011;4094;49.948;11.574;2023-07-31T02:33:50;4.43;;;3.90;;
8102;SDS011;4094;49.948;11.574;2023-07-31T02:36:20;5.33;;;4.30;;
8102;SDS011;4094;49.948;11.574;2023-07-31T02:38:49;6.60;;;4.20;;
8102;SDS011;4094;49.948;11.574;2023-07-31T02:41:18;4.23;;;3.90;;
8102;SDS011;4094;49.948;11.574;2023-07-31T02:43:47;4.80;;;4.30;;
8102;SDS011;4094;49.948;11.574;2023-07-31T02:46:16;4.80;;;4.40;;
8102;SDS011;4094;49.948;11.574;2023-07-31T02:48:46;4.97;;;4.13;;
8102;SDS011;4094;49.948;11.574;2023-07-31T02:51:16;4.53;;;3.90;;
8102;SDS011;4094;49.948;11.574;2023-07-31T02:53:46;4.87;;;4.47;;
8102;SDS011;4094;49.948;11.574;2023-07-31T02:56:15;5.67;;;4.17;;
8102;SDS011;4094;49.948;11.574;2023-07-31T02:58:45;6.03;;;4.27;;
8102;SDS011;4094;49.948;11.574;2023-07-31T03:01:14;5.93;;;4.70;;
8102;SDS011;4094;49.948;11.574;2023-07-31T03:03:43;4.93;;;4.40;;
8102;SDS011;4094;49.948;11.574;2023-07-31T03:06:12;5.07;;;4.10;;
8102;SDS011;4094;49.948;11.574;2023-07-31T03:08:43;5.83;;;4.37;;
8102;SDS011;4094;49.948;11.574;2023-07-31T03:11:12;4.60;;;4.30;;
8102;SDS011;4094;49.948;11.574;2023-07-31T03:13:43;5.63;;;4.10;;
8102;SDS011;4094;49.948;11.574;2023-07-31T03:16:12;5.77;;;4.10;;
8102;SDS011;4094;49.948;11.574;2023-07-31T03:18:41;4.90;;;4.00;;
8102;SDS011;4094;49.948;11.574;2023-07-31T03:21:10;5.10;;;4.50;;
8102;SDS011;4094;49.948;11.574;2023-07-31T03:23:40;7.90;;;4.60;;
8102;SDS011;4094;49.948;11.574;2023-07-31T03:26:12;5.00;;;4.60;;
8102;SDS011;4094;49.948;11.574;2023-07-31T03:28:41;5.20;;;4.70;;
8102;SDS011;4094;49.948;11.574;2023-07-31T03:31:10;4.40;;;4.00;;
8102;SDS011;4094;49.948;11.574;2023-07-31T03:33:40;4.53;;;4.10;;
8102;SDS011;4094;49.948;11.574;2023-07-31T03:36:09;4.07;;;3.60;;
8102;SDS011;4094;49.948;11.574;2023-07-31T03:38:39;4.27;;;3.87;;
8102;SDS011;4094;49.948;11.574;2023-07-31T03:41:08;4.43;;;4.03;;
8102;SDS011;4094;49.948;11.574;2023-07-31T03:43:39;4.63;;;4.13;;
8102;SDS011;4094;49.948;11.574;2023-07-31T03:46:08;5.00;;;3.67;;
8102;SDS011;4094;49.948;11.574;2023-07-31T03:48:38;4.17;;;3.70;;
8102;SDS011;4094;49.948;11.574;2023-07-31T03:51:07;4.07;;;3.70;;
8102;SDS011;4094;49.948;11.574;2023-07-31T03:53:37;4.87;;;3.50;;
8102;SDS011;4094;49.948;11.574;2023-07-31T03:56:06;4.00;;;3.53;;
8102;SDS011;4094;49.948;11.574;2023-07-31T03:58:35;4.83;;;3.83;;
8102;SDS011;4094;49.948;11.574;2023-07-31T04:01:05;4.30;;;3.90;;
8102;SDS011;4094;49.948;11.574;2023-07-31T04:03:35;4.43;;;4.00;;
8102;SDS011;4094;49.948;11.574;2023-07-31T04:06:04;5.67;;;3.80;;
8102;SDS011;4094;49.948;11.574;2023-07-31T04:08:34;3.70;;;3.40;;
8102;SDS011;4094;49.948;11.574;2023-07-31T04:11:03;3.77;;;3.47;;
8102;SDS011;4094;49.948;11.574;2023-07-31T04:13:32;4.33;;;3.93;;
8102;SDS011;4094;49.948;11.574;2023-07-31T04:16:02;3.80;;;3.40;;
8102;SDS011;4094;49.948;11.574;2023-07-31T04:18:34;3.90;;;3.60;;
8102;SDS011;4094;49.948;11.574;2023-07-31T04:21:03;4.20;;;3.80;;
8102;SDS011;4094;49.948;11.574;2023-07-31T04:23:32;4.80;;;3.60;;
8102;SDS011;4094;49.948;11.574;2023-07-31T04:26:02;5.00;;;3.80;;
8102;SDS011;4094;49.948;11.574;2023-07-31T04:28:31;4.20;;;3.80;;
8102;SDS011;4094;49.948;11.574;2023-07-31T04:31:00;5.47;;;3.77;;
8102;SDS011;4094;49.948;11.574;2023-07-31T04:33:29;4.40;;;3.60;;
8102;SDS011;4094;49.948;11.574;2023-07-31T04:36:00;4.73;;;3.47;;
8102;SDS011;4094;49.948;11.574;2023-07-31T04:38:29;4.33;;;3.93;;
8102;SDS011;4094;49.948;11.574;2023-07-31T04:40:58;5.83;;;4.10;;
8102;SDS011;4094;49.948;11.574;2023-07-31T04:43:28;4.30;;;3.90;;
8102;SDS011;4094;49.948;11.574;2023-07-31T04:45:58;4.30;;;3.90;;
8102;SDS011;4094;49.948;11.574;2023-07-31T04:48:27;5.63;;;3.60;;
8102;SDS011;4094;49.948;11.574;2023-07-31T04:50:56;4.37;;;3.97;;
8102;SDS011;4094;49.948;11.574;2023-07-31T04:53:26;4.17;;;3.67;;
8102;SDS011;4094;49.948;11.574;2023-07-31T04:55:56;3.83;;;3.53;;
8102;SDS011;4094;49.948;11.574;2023-07-31T04:58:25;3.97;;;3.60;;
8102;SDS011;4094;49.948;11.574;2023-07-31T05:00:54;5.93;;;3.67;;
8102;SDS011;4094;49.948;11.574;2023-07-31T05:03:23;4.17;;;3.77;;
8102;SDS011;4094;49.948;11.574;2023-07-31T05:05:52;4.27;;;3.80;;
8102;SDS011;4094;49.948;11.574;2023-07-31T05:08:22;3.80;;;3.50;;
8102;SDS011;4094;49.948;11.574;2023-07-31T05:10:53;4.70;;;3.57;;
8102;SDS011;4094;49.948;11.574;2023-07-31T05:13:22;4.50;;;3.60;;
8102;SDS011;4094;49.948;11.574;2023-07-31T05:15:51;4.20;;;3.90;;
8102;SDS011;4094;49.948;11.574;2023-07-31T05:18:21;4.73;;;3.70;;
8102;SDS011;4094;49.948;11.574;2023-07-31T05:20:50;3.83;;;3.53;;
8102;SDS011;4094;49.948;11.574;2023-07-31T05:23:19;4.43;;;3.70;;
8102;SDS011;4094;49.948;11.574;2023-07-31T05:25:49;4.50;;;3.83;;
8102;SDS011;4094;49.948;11.574;2023-07-31T05:28:20;7.43;;;3.57;;
8102;SDS011;4094;49.948;11.574;2023-07-31T05:30:50;5.50;;;3.80;;
8102;SDS011;4094;49.948;11.574;2023-07-31T05:33:19;3.73;;;3.43;;
8102;SDS011;4094;49.948;11.574;2023-07-31T05:35:49;4.03;;;3.57;;
8102;SDS011;4094;49.948;11.574;2023-07-31T05:38:18;4.33;;;3.60;;
8102;SDS011;4094;49.948;11.574;2023-07-31T05:40:47;4.00;;;3.60;;
8102;SDS011;4094;49.948;11.574;2023-07-31T05:43:16;5.27;;;3.87;;
8102;SDS011;4094;49.948;11.574;2023-07-31T05:45:46;4.00;;;3.60;;
8102;SDS011;4094;49.948;11.574;2023-07-31T05:48:16;6.07;;;3.53;;
8102;SDS011;4094;49.948;11.574;2023-07-31T05:50:45;5.93;;;3.53;;
8102;SDS011;4094;49.948;11.574;2023-07-31T05:53:14;7.07;;;3.90;;
8102;SDS011;4094;49.948;11.574;2023-07-31T05:55:43;7.27;;;3.47;;
8102;SDS011;4094;49.948;11.574;2023-07-31T05:58:12;3.70;;;3.40;;
8102;SDS011;4094;49.948;11.574;2023-07-31T06:00:42;6.07;;;3.93;;
8102;SDS011;4094;49.948;11.574;2023-07-31T06:03:12;4.53;;;3.83;;
8102;SDS011;4094;49.948;11.574;2023-07-31T06:05:41;5.57;;;4.00;;
8102;SDS011;4094;49.948;11.574;2023-07-31T06:08:10;4.10;;;3.63;;
8102;SDS011;4094;49.948;11.574;2023-07-31T06:10:39;4.03;;;3.70;;
8102;SDS011;4094;49.948;11.574;2023-07-31T06:13:08;3.93;;;3.60;;
8102;SDS011;4094;49.948;11.574;2023-07-31T06:15:38;4.20;;;3.80;;
8102;SDS011;4094;49.948;11.574;2023-07-31T06:18:08;5.23;;;3.77;;
8102;SDS011;4094;49.948;11.574;2023-07-31T06:20:39;5.37;;;3.90;;
8102;SDS011;4094;49.948;11.574;2023-07-31T06:23:08;5.40;;;3.63;;
8102;SDS011;4094;49.948;11.574;2023-07-31T06:25:38;4.07;;;3.70;;
8102;SDS011;4094;49.948;11.574;2023-07-31T06:28:07;4.00;;;3.60;;
8102;SDS011;4094;49.948;11.574;2023-07-31T06:30:36;6.40;;;3.90;;
8102;SDS011;4094;49.948;11.574;2023-07-31T06:33:06;4.60;;;3.77;;
8102;SDS011;4094;49.948;11.574;2023-07-31T06:35:36;4.43;;;3.90;;
8102;SDS011;4094;49.948;11.574;2023-07-31T06:38:07;3.90;;;3.53;;
8102;SDS011;4094;49.948;11.574;2023-07-31T06:40:36;4.50;;;3.80;;
8102;SDS011;4094;49.948;11.574;2023-07-31T06:43:05;3.80;;;3.47;;
8102;SDS011;4094;49.948;11.574;2023-07-31T06:45:36;5.10;;;3.40;;
8102;SDS011;4094;49.948;11.574;2023-07-31T06:48:05;4.13;;;3.67;;
8102;SDS011;4094;49.948;11.574;2023-07-31T06:50:34;4.93;;;4.23;;
8102;SDS011;4094;49.948;11.574;2023-07-31T06:53:05;3.93;;;3.53;;
8102;SDS011;4094;49.948;11.574;2023-07-31T06:55:34;5.47;;;3.90;;
8102;SDS011;4094;49.948;11.574;2023-07-31T06:58:04;5.93;;;4.03;;
8102;SDS011;4094;49.948;11.574;2023-07-31T07:00:33;7.53;;;4.10;;
8102;SDS011;4094;49.948;11.574;2023-07-31T07:03:02;6.10;;;4.13;;
8102;SDS011;4094;49.948;11.574;2023-07-31T07:05:32;6.23;;;4.10;;
8102;SDS011;4094;49.948;11.574;2023-07-31T07:08:01;4.23;;;3.70;;
8102;SDS011;4094;49.948;11.574;2023-07-31T07:10:32;5.10;;;3.90;;
8102;SDS011;4094;49.948;11.574;2023-07-31T07:13:01;4.67;;;3.63;;
8102;SDS011;4094;49.948;11.574;2023-07-31T07:15:30;4.27;;;3.97;;
8102;SDS011;4094;49.948;11.574;2023-07-31T07:17:59;4.90;;;3.93;;
8102;SDS011;4094;49.948;11.574;2023-07-31T07:20:28;5.27;;;4.17;;
8102;SDS011;4094;49.948;11.574;2023-07-31T07:22:58;5.23;;;3.73;;
8102;SDS011;4094;49.948;11.574;2023-07-31T07:25:27;4.37;;;3.60;;
8102;SDS011;4094;49.948;11.574;2023-07-31T07:27:58;4.03;;;3.70;;
8102;SDS011;4094;49.948;11.574;2023-07-31T07:30:27;4.03;;;3.67;;
8102;SDS011;4094;49.948;11.574;2023-07-31T07:32:56;4.20;;;3.80;;
8102;SDS011;4094;49.948;11.574;2023-07-31T07:35:26;5.83;;;3.90;;
8102;SDS011;4094;49.948;11.574;2023-07-31T07:37:55;5.03;;;3.67;;
8102;SDS011;4094;49.948;11.574;2023-07-31T07:40:25;4.83;;;4.00;;
8102;SDS011;4094;49.948;11.574;2023-07-31T07:42:54;4.97;;;3.93;;
8102;SDS011;4094;49.948;11.574;2023-07-31T07:45:25;4.33;;;3.90;;
8102;SDS011;4094;49.948;11.574;2023-07-31T07:47:54;4.83;;;4.03;;
8102;SDS011;4094;49.948;11.574;2023-07-31T07:50:23;6.17;;;3.57;;
8102;SDS011;4094;49.948;11.574;2023-07-31T07:52:53;4.80;;;4.00;;
8102;SDS011;4094;49.948;11.574;2023-07-31T07:55:22;5.70;;;3.80;;
8102;SDS011;4094;49.948;11.574;2023-07-31T07:57:52;4.27;;;3.87;;
8102;SDS011;4094;49.948;11.574;2023-07-31T08:00:21;4.00;;;3.70;;
8102;SDS011;4094;49.948;11.574;2023-07-31T08:02:51;5.33;;;4.00;;
8102;SDS011;4094;49.948;11.574;2023-07-31T08:05:21;5.50;;;4.13;;
8102;SDS011;4094;49.948;11.574;2023-07-31T08:07:50;4.80;;;3.77;;
8102;SDS011;4094;49.948;11.574;2023-07-31T08:10:20;6.13;;;3.83;;
8102;SDS011;4094;49.948;11.574;2023-07-31T08:12:49;6.47;;;3.90;;
8102;SDS011;4094;49.948;11.574;2023-07-31T08:15:19;4.30;;;3.90;;
8102;SDS011;4094;49.948;11.574;2023-07-31T08:17:48;4.33;;;3.93;;
8102;SDS011;4094;49.948;11.574;2023-07-31T08:20:19;4.37;;;3.60;;
8102;SDS011;4094;49.948;11.574;2023-07-31T08:22:48;5.27;;;3.67;;
8102;SDS011;4094;49.948;11.574;2023-07-31T08:25:17;6.10;;;3.90;;
8102;SDS011;4094;49.948;11.574;2023-07-31T08:27:47;5.37;;;3.70;;
8102;SDS011;4094;49.948;11.574;2023-07-31T08:30:16;4.67;;;3.63;;
8102;SDS011;4094;49.948;11.574;2023-07-31T08:32:49;4.53;;;3.90;;
8102;SDS011;4094;49.948;11.574;2023-07-31T08:35:19;5.80;;;4.10;;
8102;SDS011;4094;49.948;11.574;2023-07-31T08:37:49;5.93;;;4.00;;
8102;SDS011;4094;49.948;11.574;2023-07-31T08:40:18;8.80;;;4.07;;
8102;SDS011;4094;49.948;11.574;2023-07-31T08:42:50;4.73;;;4.00;;
8102;SDS011;4094;49.948;11.574;2023-07-31T08:45:23;5.33;;;3.97;;
8102;SDS011;4094;49.948;11.574;2023-07-31T08:47:53;4.43;;;3.97;;
8102;SDS011;4094;49.948;11.574;2023-07-31T08:50:24;4.53;;;3.97;;
8102;SDS011;4094;49.948;11.574;2023-07-31T08:52:55;4.17;;;3.77;;
8102;SDS011;4094;49.948;11.574;2023-07-31T08:55:25;4.13;;;3.70;;
8102;SDS011;4094;49.948;11.574;2023-07-31T08:57:56;7.10;;;3.80;;
8102;SDS011;4094;49.948;11.574;2023-07-31T09:00:25;4.23;;;3.53;;
8102;SDS011;4094;49.948;11.574;2023-07-31T09:02:57;4.77;;;3.60;;
8102;SDS011;4094;49.948;11.574;2023-07-31T09:05:31;4.47;;;3.73;;
8102;SDS011;4094;49.948;11.574;2023-07-31T09:08:00;4.97;;;3.90;;
8102;SDS011;4094;49.948;11.574;2023-07-31T09:10:33;3.70;;;3.40;;
8102;SDS011;4094;49.948;11.574;2023-07-31T09:13:02;4.00;;;3.60;;
8102;SDS011;4094;49.948;11.574;2023-07-31T09:15:33;4.10;;;3.50;;
8102;SDS011;4094;49.948;11.574;2023-07-31T09:18:05;4.33;;;3.53;;
8102;SDS011;4094;49.948;11.574;2023-07-31T09:20:37;5.67;;;3.57;;
8102;SDS011;4094;49.948;11.574;2023-07-31T09:23:07;5.07;;;3.53;;
8102;SDS011;4094;49.948;11.574;2023-07-31T09:25:37;6.93;;;3.63;;
8102;SDS011;4094;49.948;11.574;2023-07-31T09:28:08;3.60;;;3.30;;
8102;SDS011;4094;49.948;11.574;2023-07-31T09:30:45;5.07;;;3.20;;
8102;SDS011;4094;49.948;11.574;2023-07-31T09:33:18;5.13;;;3.53;;
8102;SDS011;4094;49.948;11.574;2023-07-31T09:35:49;3.87;;;3.27;;
8102;SDS011;4094;49.948;11.574;2023-07-31T09:38:18;5.43;;;3.10;;
8102;SDS011;4094;49.948;11.574;2023-07-31T09:40:48;5.67;;;3.50;;
8102;SDS011;4094;49.948;11.574;2023-07-31T09:43:17;3.23;;;2.93;;
8102;SDS011;4094;49.948;11.574;2023-07-31T09:45:48;4.37;;;3.60;;
8102;SDS011;4094;49.948;11.574;2023-07-31T09:48:23;4.00;;;3.40;;
8102;SDS011;4094;49.948;11.574;2023-07-31T09:50:55;4.30;;;3.07;;
8102;SDS011;4094;49.948;11.574;2023-07-31T09:53:28;4.40;;;3.00;;
8102;SDS011;4094;49.948;11.574;2023-07-31T09:55:58;4.67;;;2.83;;
8102;SDS011;4094;49.948;11.574;2023-07-31T09:58:29;4.50;;;3.00;;
8102;SDS011;4094;49.948;11.574;2023-07-31T10:01:00;3.57;;;2.73;;
8102;SDS011;4094;49.948;11.574;2023-07-31T10:03:31;4.57;;;3.03;;
8102;SDS011;4094;49.948;11.574;2023-07-31T10:06:02;3.57;;;3.07;;
8102;SDS011;4094;49.948;11.574;2023-07-31T10:08:33;4.23;;;3.20;;
8102;SDS011;4094;49.948;11.574;2023-07-31T10:11:05;5.13;;;3.53;;
8102;SDS011;4094;49.948;11.574;2023-07-31T10:13:36;3.77;;;3.30;;
8102;SDS011;4094;49.948;11.574;2023-07-31T10:16:05;4.60;;;3.23;;
8102;SDS011;4094;49.948;11.574;2023-07-31T10:18:35;6.30;;;3.40;;
8102;SDS011;4094;49.948;11.574;2023-07-31T10:21:07;4.27;;;3.20;;
8102;SDS011;4094;49.948;11.574;2023-07-31T10:23:37;4.90;;;3.10;;
8102;SDS011;4094;49.948;11.574;2023-07-31T10:26:07;3.53;;;3.20;;
8102;SDS011;4094;49.948;11.574;2023-07-31T10:28:37;3.47;;;3.10;;
8102;SDS011;4094;49.948;11.574;2023-07-31T10:31:08;5.53;;;3.47;;
8102;SDS011;4094;49.948;11.574;2023-07-31T10:33:37;4.03;;;3.37;;
8102;SDS011;4094;49.948;11.574;2023-07-31T10:36:15;5.23;;;3.20;;
8102;SDS011;4094;49.948;11.574;2023-07-31T10:38:48;3.40;;;3.10;;
8102;SDS011;4094;49.948;11.574;2023-07-31T10:41:19;3.77;;;3.10;;
8102;SDS011;4094;49.948;11.574;2023-07-31T10:43:48;4.70;;;3.57;;
8102;SDS011;4094;49.948;11.574;2023-07-31T10:46:17;6.20;;;3.20;;
8102;SDS011;4094;49.948;11.574;2023-07-31T10:48:46;3.40;;;3.10;;
8102;SDS011;4094;49.948;11.574;2023-07-31T10:51:33;3.77;;;3.33;;
8102;SDS011;4094;49.948;11.574;2023-07-31T10:54:10;4.67;;;3.40;;
8102;SDS011;4094;49.948;11.574;2023-07-31T10:56:40;3.30;;;3.00;;
8102;SDS011;4094;49.948;11.574;2023-07-31T10:59:13;4.63;;;3.50;;
8102;SDS011;4094;49.948;11.574;2023-07-31T11:01:51;4.77;;;3.07;;
8102;SDS011;4094;49.948;11.574;2023-07-31T11:04:22;3.30;;;2.80;;
8102;SDS011;4094;49.948;11.574;2023-07-31T11:06:57;3.83;;;2.90;;
8102;SDS011;4094;49.948;11.574;2023-07-31T11:09:28;3.83;;;2.97;;
8102;SDS011;4094;49.948;11.574;2023-07-31T11:11:59;3.90;;;3.10;;
8102;SDS011;4094;49.948;11.574;2023-07-31T11:14:29;3.20;;;2.90;;
8102;SDS011;4094;49.948;11.574;2023-07-31T11:16:58;4.73;;;2.97;;
8102;SDS011;4094;49.948;11.574;2023-07-31T11:19:27;4.20;;;3.17;;
8102;SDS011;4094;49.948;11.574;2023-07-31T11:21:58;4.27;;;2.97;;
8102;SDS011;4094;49.948;11.574;2023-07-31T11:24:27;4.83;;;3.30;;
8102;SDS011;4094;49.948;11.574;2023-07-31T11:26:57;3.63;;;3.13;;
8102;SDS011;4094;49.948;11.574;2023-07-31T11:29:27;3.30;;;3.00;;
8102;SDS011;4094;49.948;11.574;2023-07-31T11:31:57;3.83;;;3.23;;
8102;SDS011;4094;49.948;11.574;2023-07-31T11:34:26;3.23;;;2.90;;
8102;SDS011;4094;49.948;11.574;2023-07-31T11:36:57;3.50;;;2.93;;
8102;SDS011;4094;49.948;11.574;2023-07-31T11:39:26;4.90;;;3.37;;
8102;SDS011;4094;49.948;11.574;2023-07-31T11:41:58;3.43;;;3.13;;
8102;SDS011;4094;49.948;11.574;2023-07-31T11:44:36;6.07;;;3.77;;
8102;SDS011;4094;49.948;11.574;2023-07-31T11:47:06;4.17;;;2.90;;
8102;SDS011;4094;49.948;11.574;2023-07-31T11:49:36;5.50;;;3.27;;
8102;SDS011;4094;49.948;11.574;2023-07-31T11:52:08;4.83;;;3.23;;
8102;SDS011;4094;49.948;11.574;2023-07-31T11:54:37;3.33;;;3.00;;
8102;SDS011;4094;49.948;11.574;2023-07-31T11:57:07;2.90;;;2.70;;
8102;SDS011;4094;49.948;11.574;2023-07-31T11:59:37;4.07;;;3.10;;
8102;SDS011;4094;49.948;11.574;2023-07-31T12:02:07;3.70;;;3.00;;
8102;SDS011;4094;49.948;11.574;2023-07-31T12:04:37;6.23;;;3.43;;
8102;SDS011;4094;49.948;11.574;2023-07-31T12:07:08;4.83;;;3.23;;
8102;SDS011;4094;49.948;11.574;2023-07-31T12:09:37;4.00;;;3.10;;
8102;SDS011;4094;49.948;11.574;2023-07-31T12:12:07;4.37;;;3.10;;
8102;SDS011;4094;49.948;11.574;2023-07-31T12:14:37;4.60;;;3.10;;
8102;SDS011;4094;49.948;11.574;2023-07-31T12:17:10;3.47;;;2.93;;
8102;SDS011;4094;49.948;11.574;2023-07-31T12:19:39;3.60;;;3.00;;
8102;SDS011;4094;49.948;11.574;2023-07-31T12:22:13;5.03;;;3.07;;
8102;SDS011;4094;49.948;11.574;2023-07-31T12:24:44;4.73;;;3.40;;
8102;SDS011;4094;49.948;11.574;2023-07-31T12:27:13;4.27;;;3.20;;
8102;SDS011;4094;49.948;11.574;2023-07-31T12:29:45;4.90;;;3.17;;
8102;SDS011;4094;49.948;11.574;2023-07-31T12:32:19;3.97;;;3.30;;
8102;SDS011;4094;49.948;11.574;2023-07-31T12:34:50;3.87;;;3.10;;
8102;SDS011;4094;49.948;11.574;2023-07-31T12:37:21;4.03;;;3.40;;
8102;SDS011;4094;49.948;11.574;2023-07-31T12:39:51;4.03;;;3.40;;
8102;SDS011;4094;49.948;11.574;2023-07-31T12:42:20;3.90;;;3.10;;
8102;SDS011;4094;49.948;11.574;2023-07-31T12:44:49;3.77;;;3.33;;
8102;SDS011;4094;49.948;11.574;2023-07-31T12:47:19;4.40;;;3.23;;
8102;SDS011;4094;49.948;11.574;2023-07-31T12:49:48;3.30;;;2.90;;
8102;SDS011;4094;49.948;11.574;2023-07-31T12:52:18;4.23;;;2.90;;
8102;SDS011;4094;49.948;11.574;2023-07-31T12:54:49;4.13;;;3.20;;
8102;SDS011;4094;49.948;11.574;2023-07-31T12:57:18;4.67;;;3.33;;
8102;SDS011;4094;49.948;11.574;2023-07-31T12:59:47;6.27;;;3.27;;
8102;SDS011;4094;49.948;11.574;2023-07-31T13:02:17;4.93;;;3.23;;
8102;SDS011;4094;49.948;11.574;2023-07-31T13:04:49;7.70;;;3.60;;
8102;SDS011;4094;49.948;11.574;2023-07-31T13:07:19;4.07;;;3.37;;
8102;SDS011;4094;49.948;11.574;2023-07-31T13:09:49;3.20;;;2.90;;
8102;SDS011;4094;49.948;11.574;2023-07-31T13:12:18;4.23;;;3.00;;
8102;SDS011;4094;49.948;11.574;2023-07-31T13:14:47;3.60;;;3.20;;
8102;SDS011;4094;49.948;11.574;2023-07-31T13:17:20;3.90;;;3.43;;
8102;SDS011;4094;49.948;11.574;2023-07-31T13:19:49;3.73;;;3.03;;
8102;SDS011;4094;49.948;11.574;2023-07-31T13:22:19;4.27;;;3.50;;
8102;SDS011;4094;49.948;11.574;2023-07-31T13:24:50;3.47;;;3.17;;
8102;SDS011;4094;49.948;11.574;2023-07-31T13:27:23;4.97;;;3.47;;
8102;SDS011;4094;49.948;11.574;2023-07-31T13:29:52;4.90;;;3.10;;
8102;SDS011;4094;49.948;11.574;2023-07-31T13:32:22;2.80;;;2.60;;
8102;SDS011;4094;49.948;11.574;2023-07-31T13:34:51;3.50;;;3.20;;
8102;SDS011;4094;49.948;11.574;2023-07-31T13:37:21;3.93;;;3.00;;
8102;SDS011;4094;49.948;11.574;2023-07-31T13:39:51;4.50;;;3.13;;
8102;SDS011;4094;49.948;11.574;2023-07-31T13:42:21;3.13;;;2.87;;
8102;SDS011;4094;49.948;11.574;2023-07-31T13:44:50;4.23;;;3.00;;
8102;SDS011;4094;49.948;11.574;2023-07-31T13:47:20;3.20;;;2.90;;
8102;SDS011;4094;49.948;11.574;2023-07-31T13:49:49;3.53;;;3.23;;
8102;SDS011;4094;49.948;11.574;2023-07-31T13:52:18;4.23;;;3.37;;
8102;SDS011;4094;49.948;11.574;2023-07-31T13:54:48;4.07;;;3.30;;
8102;SDS011;4094;49.948;11.574;2023-07-31T13:57:19;3.97;;;3.03;;
8102;SDS011;4094;49.948;11.574;2023-07-31T13:59:48;5.50;;;3.50;;
8102;SDS011;4094;49.948;11.574;2023-07-31T14:02:19;4.70;;;3.53;;
8102;SDS011;4094;49.948;11.574;2023-07-31T14:04:48;3.70;;;3.27;;
8102;SDS011;4094;49.948;11.574;2023-07-31T14:07:19;4.23;;;3.50;;
8102;SDS011;4094;49.948;11.574;2023-07-31T14:09:48;3.93;;;3.40;;
8102;SDS011;4094;49.948;11.574;2023-07-31T14:12:18;3.10;;;2.90;;
8102;SDS011;4094;49.948;11.574;2023-07-31T14:15:08;4.53;;;3.27;;
8102;SDS011;4094;49.948;11.574;2023-07-31T14:17:38;4.30;;;3.20;;
8102;SDS011;4094;49.948;11.574;2023-07-31T14:20:08;4.13;;;3.50;;
8102;SDS011;4094;49.948;11.574;2023-07-31T14:22:40;3.73;;;2.90;;
8102;SDS011;4094;49.948;11.574;2023-07-31T14:25:09;5.20;;;3.30;;
8102;SDS011;4094;49.948;11.574;2023-07-31T14:27:42;4.37;;;3.30;;
8102;SDS011;4094;49.948;11.574;2023-07-31T14:30:12;4.47;;;3.23;;
8102;SDS011;4094;49.948;11.574;2023-07-31T14:32:41;3.57;;;3.27;;
8102;SDS011;4094;49.948;11.574;2023-07-31T14:35:10;4.93;;;3.27;;
8102;SDS011;4094;49.948;11.574;2023-07-31T14:37:40;4.47;;;3.17;;
8102;SDS011;4094;49.948;11.574;2023-07-31T14:40:11;3.90;;;3.50;;
8102;SDS011;4094;49.948;11.574;2023-07-31T14:42:43;3.57;;;3.27;;
8102;SDS011;4094;49.948;11.574;2023-07-31T14:45:12;5.60;;;3.17;;
8102;SDS011;4094;49.948;11.574;2023-07-31T14:47:42;3.97;;;3.13;;
8102;SDS011;4094;49.948;11.574;2023-07-31T14:50:11;4.83;;;3.23;;
8102;SDS011;4094;49.948;11.574;2023-07-31T14:52:41;3.63;;;3.10;;
8102;SDS011;4094;49.948;11.574;2023-07-31T14:55:10;4.27;;;3.27;;
8102;SDS011;4094;49.948;11.574;2023-07-31T14:57:39;4.77;;;3.23;;
8102;SDS011;4094;49.948;11.574;2023-07-31T15:00:10;3.93;;;3.07;;
8102;SDS011;4094;49.948;11.574;2023-07-31T15:02:40;4.23;;;3.30;;
8102;SDS011;4094;49.948;11.574;2023-07-31T15:05:10;3.30;;;2.97;;
8102;SDS011;4094;49.948;11.574;2023-07-31T15:07:39;3.20;;;2.90;;
8102;SDS011;4094;49.948;11.574;2023-07-31T15:10:08;4.03;;;3.47;;
8102;SDS011;4094;49.948;11.574;2023-07-31T15:12:39;4.13;;;3.13;;
8102;SDS011;4094;49.948;11.574;2023-07-31T15:15:11;4.63;;;3.23;;
8102;SDS011;4094;49.948;11.574;2023-07-31T15:17:43;4.67;;;3.60;;